Terminal Aerodrome Forecast
Issued by NWS Cleveland, OH

Home | Current Version | Previous Version | Text Only | Print | Product List | Glossary Off
Versions: 1 2 3 4 5 6 7 8 9 10 11 12 13 14 15 16

000
FTUS41 KCLE 281500 AAB
TAFYNG
TAF AMD
KYNG 281513Z 2815/2912 36006KT P6SM BKN030
     FM281900 35006KT P6SM SCT035
     FM290000 VRB03KT P6SM BKN250=

USA.gov is the U.S. government's official web portal to all federal, state and local government web resources and services.